sensor_id;sensor_type;location;lat;lon;timestamp;pressure;altitude;pressure_sealevel;temperature;humidity
51781;BME280;37844;57.126;24.288;2023-05-12T00:02:19;102606.97;;;8.72;100.00
51781;BME280;37844;57.126;24.288;2023-05-12T00:05:04;102604.75;;;8.62;100.00
51781;BME280;37844;57.126;24.288;2023-05-12T00:07:48;102608.59;;;8.54;100.00
51781;BME280;37844;57.126;24.288;2023-05-12T00:10:32;102603.53;;;8.39;100.00
51781;BME280;37844;57.126;24.288;2023-05-12T00:13:18;102610.53;;;8.41;100.00
51781;BME280;37844;57.126;24.288;2023-05-12T00:16:05;102613.41;;;8.31;100.00
51781;BME280;37844;57.126;24.288;2023-05-12T00:18:49;102608.66;;;8.39;100.00
51781;BME280;37844;57.126;24.288;2023-05-12T00:21:34;102621.50;;;8.06;100.00
51781;BME280;37844;57.126;24.288;2023-05-12T00:24:18;102616.47;;;8.24;100.00
51781;BME280;37844;57.126;24.288;2023-05-12T00:27:03;102613.97;;;8.25;100.00
51781;BME280;37844;57.126;24.288;2023-05-12T00:29:46;102613.41;;;8.15;100.00
51781;BME280;37844;57.126;24.288;2023-05-12T00:32:30;102618.06;;;8.22;100.00
51781;BME280;37844;57.126;24.288;2023-05-12T00:35:15;102622.25;;;8.36;100.00
51781;BME280;37844;57.126;24.288;2023-05-12T00:37:59;102617.97;;;8.37;100.00
51781;BME280;37844;57.126;24.288;2023-05-12T00:40:43;102624.47;;;8.14;100.00
51781;BME280;37844;57.126;24.288;2023-05-12T00:43:27;102621.66;;;8.09;100.00
51781;BME280;37844;57.126;24.288;2023-05-12T00:46:11;102632.16;;;7.81;100.00
51781;BME280;37844;57.126;24.288;2023-05-12T00:48:54;102626.81;;;7.78;100.00
51781;BME280;37844;57.126;24.288;2023-05-12T00:51:38;102637.75;;;8.21;100.00
51781;BME280;37844;57.126;24.288;2023-05-12T00:54:26;102639.75;;;7.79;100.00
51781;BME280;37844;57.126;24.288;2023-05-12T00:57:10;102639.56;;;7.60;100.00
51781;BME280;37844;57.126;24.288;2023-05-12T00:59:55;102638.69;;;7.76;100.00
51781;BME280;37844;57.126;24.288;2023-05-12T01:02:39;102641.84;;;7.86;100.00
51781;BME280;37844;57.126;24.288;2023-05-12T01:05:24;102636.06;;;7.74;100.00
51781;BME280;37844;57.126;24.288;2023-05-12T01:08:12;102645.25;;;7.85;100.00
51781;BME280;37844;57.126;24.288;2023-05-12T01:10:56;102646.94;;;7.70;100.00
51781;BME280;37844;57.126;24.288;2023-05-12T01:13:40;102643.63;;;7.56;100.00
51781;BME280;37844;57.126;24.288;2023-05-12T01:16:25;102648.22;;;7.47;100.00
51781;BME280;37844;57.126;24.288;2023-05-12T01:19:14;102654.13;;;7.61;100.00
51781;BME280;37844;57.126;24.288;2023-05-12T01:22:01;102656.25;;;7.68;100.00
51781;BME280;37844;57.126;24.288;2023-05-12T01:27:30;102661.78;;;7.44;100.00
51781;BME280;37844;57.126;24.288;2023-05-12T01:30:16;102661.97;;;7.33;100.00
51781;BME280;37844;57.126;24.288;2023-05-12T01:33:01;102660.66;;;7.25;100.00
51781;BME280;37844;57.126;24.288;2023-05-12T01:35:45;102662.47;;;7.42;100.00
51781;BME280;37844;57.126;24.288;2023-05-12T01:38:30;102668.50;;;7.42;100.00
51781;BME280;37844;57.126;24.288;2023-05-12T01:41:14;102673.47;;;7.25;100.00
51781;BME280;37844;57.126;24.288;2023-05-12T01:43:58;102669.41;;;7.13;100.00
51781;BME280;37844;57.126;24.288;2023-05-12T01:46:42;102679.66;;;7.43;100.00
51781;BME280;37844;57.126;24.288;2023-05-12T01:49:26;102674.88;;;7.34;100.00
51781;BME280;37844;57.126;24.288;2023-05-12T01:52:10;102677.63;;;7.22;100.00
51781;BME280;37844;57.126;24.288;2023-05-12T01:54:54;102675.44;;;7.29;100.00
51781;BME280;37844;57.126;24.288;2023-05-12T01:57:38;102670.44;;;7.02;100.00
51781;BME280;37844;57.126;24.288;2023-05-12T02:00:22;102670.72;;;7.07;100.00
51781;BME280;37844;57.126;24.288;2023-05-12T02:03:06;102671.31;;;6.88;100.00
51781;BME280;37844;57.126;24.288;2023-05-12T02:05:50;102670.59;;;6.90;100.00
51781;BME280;37844;57.126;24.288;2023-05-12T02:08:34;102669.56;;;7.01;100.00
51781;BME280;37844;57.126;24.288;2023-05-12T02:11:18;102674.78;;;7.33;100.00
51781;BME280;37844;57.126;24.288;2023-05-12T02:14:02;102676.84;;;7.38;100.00
51781;BME280;37844;57.126;24.288;2023-05-12T02:16:46;102673.34;;;7.38;100.00
51781;BME280;37844;57.126;24.288;2023-05-12T02:19:35;102682.94;;;7.26;100.00
51781;BME280;37844;57.126;24.288;2023-05-12T02:22:19;102682.94;;;7.26;100.00
51781;BME280;37844;57.126;24.288;2023-05-12T02:25:03;102689.56;;;7.37;100.00
51781;BME280;37844;57.126;24.288;2023-05-12T02:27:47;102686.31;;;7.25;100.00
51781;BME280;37844;57.126;24.288;2023-05-12T02:30:31;102685.88;;;7.17;100.00
51781;BME280;37844;57.126;24.288;2023-05-12T02:33:15;102692.03;;;7.50;100.00
51781;BME280;37844;57.126;24.288;2023-05-12T02:35:59;102694.31;;;7.31;100.00
51781;BME280;37844;57.126;24.288;2023-05-12T02:38:43;102698.22;;;7.09;100.00
51781;BME280;37844;57.126;24.288;2023-05-12T02:41:27;102703.31;;;6.79;100.00
51781;BME280;37844;57.126;24.288;2023-05-12T02:44:11;102711.00;;;6.79;100.00
51781;BME280;37844;57.126;24.288;2023-05-12T02:46:55;102709.22;;;6.78;100.00
51781;BME280;37844;57.126;24.288;2023-05-12T02:49:40;102706.91;;;7.26;100.00
51781;BME280;37844;57.126;24.288;2023-05-12T02:52:24;102706.88;;;7.11;100.00
51781;BME280;37844;57.126;24.288;2023-05-12T02:55:08;102713.75;;;6.83;100.00
51781;BME280;37844;57.126;24.288;2023-05-12T02:57:52;102707.75;;;7.12;100.00
51781;BME280;37844;57.126;24.288;2023-05-12T03:00:36;102709.88;;;6.89;100.00
51781;BME280;37844;57.126;24.288;2023-05-12T03:03:20;102701.31;;;7.18;100.00
51781;BME280;37844;57.126;24.288;2023-05-12T03:06:05;102712.72;;;6.94;100.00
51781;BME280;37844;57.126;24.288;2023-05-12T03:08:48;102713.97;;;7.00;100.00
51781;BME280;37844;57.126;24.288;2023-05-12T03:11:32;102710.75;;;7.05;100.00
51781;BME280;37844;57.126;24.288;2023-05-12T03:14:16;102706.56;;;7.20;100.00
51781;BME280;37844;57.126;24.288;2023-05-12T03:17:00;102708.69;;;7.12;100.00
51781;BME280;37844;57.126;24.288;2023-05-12T03:19:44;102709.47;;;7.26;100.00
51781;BME280;37844;57.126;24.288;2023-05-12T03:22:28;102708.41;;;7.08;100.00
51781;BME280;37844;57.126;24.288;2023-05-12T03:25:13;102720.94;;;7.03;100.00
51781;BME280;37844;57.126;24.288;2023-05-12T03:27:58;102714.41;;;7.23;100.00
51781;BME280;37844;57.126;24.288;2023-05-12T03:30:42;102710.44;;;7.43;100.00
51781;BME280;37844;57.126;24.288;2023-05-12T03:33:26;102715.84;;;7.48;100.00
51781;BME280;37844;57.126;24.288;2023-05-12T03:36:10;102714.50;;;7.54;100.00
51781;BME280;37844;57.126;24.288;2023-05-12T03:38:54;102714.03;;;7.61;100.00
51781;BME280;37844;57.126;24.288;2023-05-12T03:41:38;102717.03;;;7.84;100.00
51781;BME280;37844;57.126;24.288;2023-05-12T03:44:22;102705.06;;;8.16;100.00
51781;BME280;37844;57.126;24.288;2023-05-12T03:47:06;102706.69;;;8.61;100.00
51781;BME280;37844;57.126;24.288;2023-05-12T03:49:50;102704.34;;;8.66;100.00
51781;BME280;37844;57.126;24.288;2023-05-12T03:52:34;102712.56;;;8.42;100.00
51781;BME280;37844;57.126;24.288;2023-05-12T03:55:21;102709.97;;;8.42;100.00
51781;BME280;37844;57.126;24.288;2023-05-12T03:58:05;102712.88;;;8.65;100.00
51781;BME280;37844;57.126;24.288;2023-05-12T04:00:49;102713.97;;;8.86;100.00
51781;BME280;37844;57.126;24.288;2023-05-12T04:03:33;102710.91;;;9.10;100.00
51781;BME280;37844;57.126;24.288;2023-05-12T04:06:17;102713.22;;;9.22;100.00
51781;BME280;37844;57.126;24.288;2023-05-12T04:09:01;102718.78;;;9.47;100.00
51781;BME280;37844;57.126;24.288;2023-05-12T04:11:45;102710.59;;;9.56;100.00
51781;BME280;37844;57.126;24.288;2023-05-12T04:14:29;102714.38;;;9.45;100.00
51781;BME280;37844;57.126;24.288;2023-05-12T04:17:14;102721.72;;;9.55;100.00
51781;BME280;37844;57.126;24.288;2023-05-12T04:19:58;102716.44;;;9.52;100.00
51781;BME280;37844;57.126;24.288;2023-05-12T04:22:42;102704.28;;;9.67;100.00
51781;BME280;37844;57.126;24.288;2023-05-12T04:25:26;102723.34;;;9.89;100.00
51781;BME280;37844;57.126;24.288;2023-05-12T04:28:10;102719.13;;;10.09;100.00
51781;BME280;37844;57.126;24.288;2023-05-12T04:30:54;102728.03;;;10.33;100.00
51781;BME280;37844;57.126;24.288;2023-05-12T04:33:38;102725.00;;;10.42;100.00
51781;BME280;37844;57.126;24.288;2023-05-12T04:36:22;102726.22;;;10.50;100.00
51781;BME280;37844;57.126;24.288;2023-05-12T04:39:06;102729.63;;;10.69;100.00
51781;BME280;37844;57.126;24.288;2023-05-12T04:41:50;102723.50;;;10.86;100.00
51781;BME280;37844;57.126;24.288;2023-05-12T04:44:34;102722.00;;;11.11;100.00
51781;BME280;37844;57.126;24.288;2023-05-12T04:47:18;102723.31;;;11.43;100.00
51781;BME280;37844;57.126;24.288;2023-05-12T04:50:02;102724.75;;;11.78;100.00
51781;BME280;37844;57.126;24.288;2023-05-12T04:52:47;102722.88;;;12.18;100.00
51781;BME280;37844;57.126;24.288;2023-05-12T04:55:31;102725.31;;;12.37;100.00
51781;BME280;37844;57.126;24.288;2023-05-12T04:58:15;102717.75;;;12.66;100.00
51781;BME280;37844;57.126;24.288;2023-05-12T05:01:06;102718.94;;;13.00;100.00
51781;BME280;37844;57.126;24.288;2023-05-12T05:03:51;102719.38;;;13.38;99.65
51781;BME280;37844;57.126;24.288;2023-05-12T05:06:35;102722.41;;;13.77;96.75
51781;BME280;37844;57.126;24.288;2023-05-12T05:09:18;102726.63;;;14.02;93.73
51781;BME280;37844;57.126;24.288;2023-05-12T05:12:02;102730.09;;;14.31;92.85
51781;BME280;37844;57.126;24.288;2023-05-12T05:14:46;102726.50;;;14.56;90.43
51781;BME280;37844;57.126;24.288;2023-05-12T05:17:30;102720.44;;;14.88;87.19
51781;BME280;37844;57.126;24.288;2023-05-12T05:20:15;102716.66;;;15.08;83.31
51781;BME280;37844;57.126;24.288;2023-05-12T05:22:58;102727.44;;;15.58;79.81
51781;BME280;37844;57.126;24.288;2023-05-12T05:25:42;102725.97;;;16.04;77.39
51781;BME280;37844;57.126;24.288;2023-05-12T05:28:27;102724.09;;;16.40;74.69
51781;BME280;37844;57.126;24.288;2023-05-12T05:31:14;102730.84;;;16.74;72.33
51781;BME280;37844;57.126;24.288;2023-05-12T05:33:59;102730.53;;;17.51;72.22
51781;BME280;37844;57.126;24.288;2023-05-12T05:36:43;102729.94;;;18.32;67.09
51781;BME280;37844;57.126;24.288;2023-05-12T05:39:27;102727.69;;;18.61;62.31
51781;BME280;37844;57.126;24.288;2023-05-12T05:42:13;102721.16;;;18.98;61.27
51781;BME280;37844;57.126;24.288;2023-05-12T05:44:58;102722.44;;;19.46;58.00
51781;BME280;37844;57.126;24.288;2023-05-12T05:47:42;102717.31;;;19.63;55.40
51781;BME280;37844;57.126;24.288;2023-05-12T05:50:26;102721.13;;;20.10;52.67
51781;BME280;37844;57.126;24.288;2023-05-12T05:53:10;102722.28;;;20.77;50.88
51781;BME280;37844;57.126;24.288;2023-05-12T05:55:53;102721.44;;;21.34;49.15
51781;BME280;37844;57.126;24.288;2023-05-12T05:58:37;102725.81;;;21.68;48.58
51781;BME280;37844;57.126;24.288;2023-05-12T06:01:21;102725.75;;;21.92;47.37
51781;BME280;37844;57.126;24.288;2023-05-12T06:04:05;102730.94;;;22.11;45.06
51781;BME280;37844;57.126;24.288;2023-05-12T06:06:49;102714.09;;;22.69;44.14
51781;BME280;37844;57.126;24.288;2023-05-12T06:09:33;102723.94;;;23.55;43.56
51781;BME280;37844;57.126;24.288;2023-05-12T06:12:17;102718.50;;;23.75;41.50
51781;BME280;37844;57.126;24.288;2023-05-12T06:15:01;102719.31;;;23.83;40.26
51781;BME280;37844;57.126;24.288;2023-05-12T06:17:45;102728.97;;;24.55;39.55
51781;BME280;37844;57.126;24.288;2023-05-12T06:20:30;102722.44;;;25.36;38.98
51781;BME280;37844;57.126;24.288;2023-05-12T06:23:14;102730.81;;;25.60;37.51
51781;BME280;37844;57.126;24.288;2023-05-12T06:25:58;102725.88;;;25.91;35.79
51781;BME280;37844;57.126;24.288;2023-05-12T06:28:42;102726.25;;;26.57;35.03
51781;BME280;37844;57.126;24.288;2023-05-12T06:31:26;102728.50;;;27.11;33.87
51781;BME280;37844;57.126;24.288;2023-05-12T06:34:10;102729.91;;;27.26;34.07
51781;BME280;37844;57.126;24.288;2023-05-12T06:36:54;102731.13;;;27.48;35.34
51781;BME280;37844;57.126;24.288;2023-05-12T06:39:38;102728.88;;;27.66;36.29
51781;BME280;37844;57.126;24.288;2023-05-12T06:42:22;102723.19;;;28.70;34.80
51781;BME280;37844;57.126;24.288;2023-05-12T06:45:06;102732.31;;;28.32;35.18
51781;BME280;37844;57.126;24.288;2023-05-12T06:47:50;102733.56;;;28.78;34.37
51781;BME280;37844;57.126;24.288;2023-05-12T06:50:34;102732.44;;;28.85;33.40
51781;BME280;37844;57.126;24.288;2023-05-12T06:53:18;102740.47;;;29.12;33.14
51781;BME280;37844;57.126;24.288;2023-05-12T06:56:02;102734.53;;;29.55;32.78
51781;BME280;37844;57.126;24.288;2023-05-12T06:58:46;102733.72;;;29.53;32.58
51781;BME280;37844;57.126;24.288;2023-05-12T07:01:30;102734.84;;;29.46;31.91
51781;BME280;37844;57.126;24.288;2023-05-12T07:04:15;102742.56;;;30.04;31.91
51781;BME280;37844;57.126;24.288;2023-05-12T07:06:59;102740.69;;;30.06;30.46
51781;BME280;37844;57.126;24.288;2023-05-12T07:09:43;102743.94;;;30.14;30.98
51781;BME280;37844;57.126;24.288;2023-05-12T07:12:27;102744.19;;;30.32;30.58
51781;BME280;37844;57.126;24.288;2023-05-12T07:15:12;102744.84;;;31.04;30.15
51781;BME280;37844;57.126;24.288;2023-05-12T07:17:56;102745.25;;;31.36;29.46
51781;BME280;37844;57.126;24.288;2023-05-12T07:20:40;102744.53;;;31.33;29.74
51781;BME280;37844;57.126;24.288;2023-05-12T07:23:30;102743.59;;;31.95;28.81
51781;BME280;37844;57.126;24.288;2023-05-12T07:26:14;102744.13;;;31.83;28.36
51781;BME280;37844;57.126;24.288;2023-05-12T07:28:59;102740.41;;;31.87;27.76
51781;BME280;37844;57.126;24.288;2023-05-12T07:31:43;102743.06;;;31.87;28.56
51781;BME280;37844;57.126;24.288;2023-05-12T07:34:27;102742.06;;;31.89;28.04
51781;BME280;37844;57.126;24.288;2023-05-12T07:37:11;102744.53;;;31.94;27.86
51781;BME280;37844;57.126;24.288;2023-05-12T07:39:55;102739.78;;;32.20;27.67
51781;BME280;37844;57.126;24.288;2023-05-12T07:42:39;102748.88;;;32.16;27.37
51781;BME280;37844;57.126;24.288;2023-05-12T07:45:23;102751.81;;;32.47;28.02
51781;BME280;37844;57.126;24.288;2023-05-12T07:48:08;102749.09;;;32.11;27.50
51781;BME280;37844;57.126;24.288;2023-05-12T07:50:53;102753.34;;;32.53;27.56
51781;BME280;37844;57.126;24.288;2023-05-12T07:53:38;102751.41;;;32.38;27.41
51781;BME280;37844;57.126;24.288;2023-05-12T07:56:22;102752.31;;;33.28;27.14
51781;BME280;37844;57.126;24.288;2023-05-12T07:59:06;102748.25;;;32.85;27.15
51781;BME280;37844;57.126;24.288;2023-05-12T08:01:50;102758.78;;;32.14;27.12
51781;BME280;37844;57.126;24.288;2023-05-12T08:04:34;102754.50;;;31.89;27.38
51781;BME280;37844;57.126;24.288;2023-05-12T08:07:18;102753.63;;;32.47;27.69
51781;BME280;37844;57.126;24.288;2023-05-12T08:10:02;102756.38;;;32.26;26.79
51781;BME280;37844;57.126;24.288;2023-05-12T08:12:46;102756.09;;;32.70;27.34
51781;BME280;37844;57.126;24.288;2023-05-12T08:15:31;102763.59;;;31.44;27.91
51781;BME280;37844;57.126;24.288;2023-05-12T08:18:15;102759.84;;;31.89;27.49
51781;BME280;37844;57.126;24.288;2023-05-12T08:20:58;102758.38;;;32.02;27.05
51781;BME280;37844;57.126;24.288;2023-05-12T08:23:43;102756.97;;;31.12;28.42
51781;BME280;37844;57.126;24.288;2023-05-12T08:26:27;102758.19;;;32.64;27.84
51781;BME280;37844;57.126;24.288;2023-05-12T08:29:11;102751.06;;;31.25;27.29
51781;BME280;37844;57.126;24.288;2023-05-12T08:31:56;102746.22;;;32.16;27.89
51781;BME280;37844;57.126;24.288;2023-05-12T08:34:41;102739.22;;;32.13;27.39
51781;BME280;37844;57.126;24.288;2023-05-12T08:37:24;102750.38;;;31.82;27.50
51781;BME280;37844;57.126;24.288;2023-05-12T08:40:13;102744.03;;;32.62;27.37
51781;BME280;37844;57.126;24.288;2023-05-12T08:45:43;102743.25;;;32.96;27.21
51781;BME280;37844;57.126;24.288;2023-05-12T08:48:28;102744.69;;;33.38;26.81
51781;BME280;37844;57.126;24.288;2023-05-12T08:51:14;102737.06;;;33.30;26.97
51781;BME280;37844;57.126;24.288;2023-05-12T08:53:58;102745.16;;;33.46;26.61
51781;BME280;37844;57.126;24.288;2023-05-12T08:56:42;102747.28;;;33.05;26.89
51781;BME280;37844;57.126;24.288;2023-05-12T08:59:26;102740.16;;;33.23;26.72
51781;BME280;37844;57.126;24.288;2023-05-12T09:02:10;102741.94;;;31.72;27.50
51781;BME280;37844;57.126;24.288;2023-05-12T09:04:56;102745.47;;;32.12;27.19
51781;BME280;37844;57.126;24.288;2023-05-12T09:07:41;102741.06;;;31.92;26.96
51781;BME280;37844;57.126;24.288;2023-05-12T09:10:26;102736.03;;;32.05;27.40
51781;BME280;37844;57.126;24.288;2023-05-12T09:13:27;102730.88;;;32.76;27.15
51781;BME280;37844;57.126;24.288;2023-05-12T09:16:12;102731.06;;;31.77;27.86
51781;BME280;37844;57.126;24.288;2023-05-12T09:18:58;102735.63;;;32.14;28.18
51781;BME280;37844;57.126;24.288;2023-05-12T09:21:42;102725.91;;;32.51;28.19
51781;BME280;37844;57.126;24.288;2023-05-12T09:24:35;102731.13;;;32.33;28.22
51781;BME280;37844;57.126;24.288;2023-05-12T09:27:38;102730.25;;;31.95;28.60
51781;BME280;37844;57.126;24.288;2023-05-12T09:30:31;102731.94;;;32.17;28.74
51781;BME280;37844;57.126;24.288;2023-05-12T09:33:18;102725.81;;;32.52;28.20
51781;BME280;37844;57.126;24.288;2023-05-12T09:36:01;102724.03;;;32.70;28.83
51781;BME280;37844;57.126;24.288;2023-05-12T09:38:46;102730.50;;;31.89;28.77
51781;BME280;37844;57.126;24.288;2023-05-12T09:41:41;102728.72;;;31.08;28.50
51781;BME280;37844;57.126;24.288;2023-05-12T09:44:25;102722.19;;;29.54;29.80
51781;BME280;37844;57.126;24.288;2023-05-12T09:47:12;102716.25;;;29.46;30.08
51781;BME280;37844;57.126;24.288;2023-05-12T09:49:58;102723.91;;;27.54;31.23
51781;BME280;37844;57.126;24.288;2023-05-12T09:52:44;102721.66;;;28.63;30.82
51781;BME280;37844;57.126;24.288;2023-05-12T09:55:28;102712.47;;;28.73;30.51
51781;BME280;37844;57.126;24.288;2023-05-12T09:58:13;102713.75;;;28.62;30.90
51781;BME280;37844;57.126;24.288;2023-05-12T10:00:58;102715.97;;;27.54;30.90
51781;BME280;37844;57.126;24.288;2023-05-12T10:03:42;102711.00;;;26.70;32.39
51781;BME280;37844;57.126;24.288;2023-05-12T10:11:57;102709.66;;;26.88;32.59
51781;BME280;37844;57.126;24.288;2023-05-12T10:14:41;102708.13;;;27.15;32.67
51781;BME280;37844;57.126;24.288;2023-05-12T10:17:26;102711.63;;;27.15;32.74
51781;BME280;37844;57.126;24.288;2023-05-12T10:20:10;102711.22;;;26.18;34.17
51781;BME280;37844;57.126;24.288;2023-05-12T10:22:56;102708.63;;;26.15;33.26
51781;BME280;37844;57.126;24.288;2023-05-12T10:25:40;102714.47;;;25.89;33.83
51781;BME280;37844;57.126;24.288;2023-05-12T10:28:25;102715.94;;;25.56;34.21
51781;BME280;37844;57.126;24.288;2023-05-12T10:31:09;102711.28;;;25.70;34.11
51781;BME280;37844;57.126;24.288;2023-05-12T10:34:00;102712.56;;;25.48;34.01
51781;BME280;37844;57.126;24.288;2023-05-12T10:36:46;102709.34;;;25.78;33.73
51781;BME280;37844;57.126;24.288;2023-05-12T10:39:32;102709.13;;;25.43;33.77
51781;BME280;37844;57.126;24.288;2023-05-12T10:42:20;102702.72;;;25.05;34.42
51781;BME280;37844;57.126;24.288;2023-05-12T10:45:15;102707.53;;;24.78;34.34
51781;BME280;37844;57.126;24.288;2023-05-12T10:48:06;102704.06;;;24.76;35.18
51781;BME280;37844;57.126;24.288;2023-05-12T10:50:52;102701.25;;;24.87;35.37
51781;BME280;37844;57.126;24.288;2023-05-12T10:53:39;102703.97;;;24.82;34.95
51781;BME280;37844;57.126;24.288;2023-05-12T10:56:24;102699.84;;;24.63;35.70
51781;BME280;37844;57.126;24.288;2023-05-12T10:59:29;102704.00;;;24.16;35.57
51781;BME280;37844;57.126;24.288;2023-05-12T11:02:15;102707.03;;;23.80;36.06
51781;BME280;37844;57.126;24.288;2023-05-12T11:05:01;102700.81;;;23.86;36.80
51781;BME280;37844;57.126;24.288;2023-05-12T11:07:48;102702.59;;;23.85;37.31
51781;BME280;37844;57.126;24.288;2023-05-12T11:10:32;102708.00;;;24.47;37.32
51781;BME280;37844;57.126;24.288;2023-05-12T11:13:16;102696.72;;;24.34;36.89
51781;BME280;37844;57.126;24.288;2023-05-12T11:16:01;102698.69;;;24.17;36.21
51781;BME280;37844;57.126;24.288;2023-05-12T11:18:45;102697.75;;;24.23;36.41
51781;BME280;37844;57.126;24.288;2023-05-12T11:21:33;102695.34;;;24.01;35.72
51781;BME280;37844;57.126;24.288;2023-05-12T11:24:16;102700.06;;;23.71;35.82
51781;BME280;37844;57.126;24.288;2023-05-12T11:27:01;102697.41;;;23.78;35.39
51781;BME280;37844;57.126;24.288;2023-05-12T11:29:59;102701.28;;;23.40;35.98
51781;BME280;37844;57.126;24.288;2023-05-12T11:32:44;102698.28;;;23.77;36.56
51781;BME280;37844;57.126;24.288;2023-05-12T11:35:31;102691.25;;;23.80;36.37
51781;BME280;37844;57.126;24.288;2023-05-12T11:38:16;102701.84;;;23.68;37.13
51781;BME280;37844;57.126;24.288;2023-05-12T11:41:00;102695.56;;;23.86;36.96
51781;BME280;37844;57.126;24.288;2023-05-12T11:43:44;102693.22;;;23.54;36.83
51781;BME280;37844;57.126;24.288;2023-05-12T11:46:29;102693.13;;;23.66;36.40
51781;BME280;37844;57.126;24.288;2023-05-12T11:49:13;102696.63;;;23.66;36.61
51781;BME280;37844;57.126;24.288;2023-05-12T11:52:01;102693.16;;;23.61;36.24
51781;BME280;37844;57.126;24.288;2023-05-12T11:57:33;102688.91;;;23.48;36.13
51781;BME280;37844;57.126;24.288;2023-05-12T12:00:25;102689.75;;;23.50;36.66
51781;BME280;37844;57.126;24.288;2023-05-12T12:03:10;102686.19;;;23.57;36.43
51781;BME280;37844;57.126;24.288;2023-05-12T12:06:02;102684.63;;;23.35;36.56
51781;BME280;37844;57.126;24.288;2023-05-12T12:08:50;102683.06;;;23.15;36.53
51781;BME280;37844;57.126;24.288;2023-05-12T12:11:34;102686.44;;;23.31;37.04
51781;BME280;37844;57.126;24.288;2023-05-12T12:14:18;102681.22;;;23.28;36.73
51781;BME280;37844;57.126;24.288;2023-05-12T12:17:02;102682.91;;;23.32;36.69
51781;BME280;37844;57.126;24.288;2023-05-12T12:19:46;102673.13;;;23.46;36.43
51781;BME280;37844;57.126;24.288;2023-05-12T12:22:30;102678.47;;;23.40;37.07
51781;BME280;37844;57.126;24.288;2023-05-12T12:25:17;102682.84;;;23.38;36.46
51781;BME280;37844;57.126;24.288;2023-05-12T12:28:02;102676.06;;;23.11;36.06
51781;BME280;37844;57.126;24.288;2023-05-12T12:30:47;102665.69;;;22.91;35.87
51781;BME280;37844;57.126;24.288;2023-05-12T12:33:31;102666.63;;;22.85;35.52
51781;BME280;37844;57.126;24.288;2023-05-12T12:36:15;102664.88;;;22.88;35.79
51781;BME280;37844;57.126;24.288;2023-05-12T12:39:00;102668.28;;;22.94;34.74
51781;BME280;37844;57.126;24.288;2023-05-12T12:41:45;102664.03;;;22.78;35.04
51781;BME280;37844;57.126;24.288;2023-05-12T12:44:30;102664.88;;;22.84;35.57
51781;BME280;37844;57.126;24.288;2023-05-12T12:47:14;102668.28;;;22.97;36.18
51781;BME280;37844;57.126;24.288;2023-05-12T12:49:58;102666.56;;;22.93;36.10
51781;BME280;37844;57.126;24.288;2023-05-12T12:52:42;102663.19;;;22.73;36.36
51781;BME280;37844;57.126;24.288;2023-05-12T12:55:26;102665.88;;;22.65;36.08
51781;BME280;37844;57.126;24.288;2023-05-12T12:58:10;102660.75;;;22.50;35.84
51781;BME280;37844;57.126;24.288;2023-05-12T13:00:55;102663.22;;;22.68;35.55
51781;BME280;37844;57.126;24.288;2023-05-12T13:03:39;102657.25;;;22.48;34.69
51781;BME280;37844;57.126;24.288;2023-05-12T13:06:23;102659.09;;;22.29;34.97
51781;BME280;37844;57.126;24.288;2023-05-12T13:09:07;102661.63;;;22.46;35.72
51781;BME280;37844;57.126;24.288;2023-05-12T13:11:51;102657.28;;;22.40;36.25
51781;BME280;37844;57.126;24.288;2023-05-12T13:14:35;102656.41;;;22.42;36.81
51781;BME280;37844;57.126;24.288;2023-05-12T13:17:19;102655.53;;;22.40;35.69
51781;BME280;37844;57.126;24.288;2023-05-12T13:20:03;102647.63;;;22.43;35.77
51781;BME280;37844;57.126;24.288;2023-05-12T13:22:48;102649.41;;;22.37;35.54
51781;BME280;37844;57.126;24.288;2023-05-12T13:25:32;102640.72;;;22.29;35.08
51781;BME280;37844;57.126;24.288;2023-05-12T13:28:16;102640.69;;;22.30;35.57
51781;BME280;37844;57.126;24.288;2023-05-12T13:31:00;102632.81;;;22.33;35.29
51781;BME280;37844;57.126;24.288;2023-05-12T13:33:44;102627.59;;;22.18;35.50
51781;BME280;37844;57.126;24.288;2023-05-12T13:36:28;102626.75;;;22.22;35.39
51781;BME280;37844;57.126;24.288;2023-05-12T13:39:14;102628.44;;;22.28;36.05
51781;BME280;37844;57.126;24.288;2023-05-12T13:41:58;102636.28;;;22.38;36.73
51781;BME280;37844;57.126;24.288;2023-05-12T13:44:42;102631.06;;;22.29;36.18
51781;BME280;37844;57.126;24.288;2023-05-12T13:47:26;102627.63;;;22.13;36.42
51781;BME280;37844;57.126;24.288;2023-05-12T13:50:11;102625.88;;;22.12;36.31
51781;BME280;37844;57.126;24.288;2023-05-12T13:52:55;102609.25;;;22.12;36.35
51781;BME280;37844;57.126;24.288;2023-05-12T13:55:39;102627.63;;;22.16;36.41
51781;BME280;37844;57.126;24.288;2023-05-12T13:58:23;102619.69;;;22.27;37.61
51781;BME280;37844;57.126;24.288;2023-05-12T14:01:08;102621.56;;;21.99;36.66
51781;BME280;37844;57.126;24.288;2023-05-12T14:03:51;102618.97;;;21.97;37.15
51781;BME280;37844;57.126;24.288;2023-05-12T14:06:35;102621.53;;;22.10;36.93
51781;BME280;37844;57.126;24.288;2023-05-12T14:09:19;102626.84;;;21.91;36.57
51781;BME280;37844;57.126;24.288;2023-05-12T14:12:03;102622.47;;;21.87;36.48
51781;BME280;37844;57.126;24.288;2023-05-12T14:14:48;102625.16;;;21.81;36.95
51781;BME280;37844;57.126;24.288;2023-05-12T14:17:33;102618.19;;;21.72;36.46
51781;BME280;37844;57.126;24.288;2023-05-12T14:20:17;102618.22;;;21.60;36.90
51781;BME280;37844;57.126;24.288;2023-05-12T14:23:01;102612.03;;;21.75;36.65
51781;BME280;37844;57.126;24.288;2023-05-12T14:25:45;102612.97;;;21.65;36.46